• Join FlightAware (Why Join?)
  • Login
  • US Flag 
12:25PM EDT


 

Airport Tracker/Info


-or-


 

Live Flight TrackerFlight Track Log ✈ N85JE ✈ 20-Jul-2014 ✈ KGNV - KAPF

Flight Track Log - Related Links

Times and Time Zones

All times are in EDT time to prevent confusion due to time zone crossing. See the N85JE flight status page for this flight to view local times or setup timezone preferences in your user account.

Time Position Orientation Groundspeed Altitude Reporting Facility
EDT Latitude Longitude Course Direction KTS MPH feet Rate Location/Type
12:19PM 29.6847 -82.2900 180° South 148 170 800  Level Jacksonville Center
12:25PM 29.1097 -82.0333 180° South  Level FlightAware Approximate
12:25PM 29.3530 -82.2456 154° Southeast 312 359 18,600  Level FlightAware ADS-B (KMCO)
12:25PM 29.2990 -82.2158 154° Southeast 316 364 20,500 960 Climbing FlightAware ADS-B (KMCO)
12:27PM 29.1403 -82.1283 154° Southeast 381 438 21,000 180 Climbing FlightAware ADS-B (KMCO)
12:28PM 29.0694 -82.0893 154° Southeast 381 438 21,000  Level FlightAware ADS-B (KMCO)
12:29PM 28.9269 -82.0111 154° Southeast 382 440 21,000  Level FlightAware ADS-B (KMCO)
12:30PM 28.8350 -81.9608 154° Southeast 384 442 21,000  Level FlightAware ADS-B (KMCO)
12:31PM 28.7676 -81.9239 154° Southeast 386 444 21,000  Level FlightAware ADS-B (KMCO)
12:32PM 28.6979 -81.8859 154° Southeast 386 444 21,000  Level FlightAware ADS-B (KMCO)
12:32PM 28.6354 -81.8519 154° Southeast 385 443 21,000  Level FlightAware ADS-B (KMCO)
12:33PM 28.5704 -81.8210 170° South 384 442 21,000  Level FlightAware ADS-B (KMCO)
12:33PM 28.5303 -81.8191 186° South 381 438 21,000  Level FlightAware ADS-B (KMCO)
12:34PM 28.4583 -81.8272 174° South 381 438 21,000  Level FlightAware ADS-B (KMCO)
12:34PM 28.4243 -81.8179 162° South 381 438 21,000  Level FlightAware ADS-B (KMCO)
12:35PM 28.3204 -81.7821 165° South 380 437 21,000  Level FlightAware ADS-B (KMCO)
12:36PM 28.2523 -81.7633 167° South 379 436 21,000  Level FlightAware ADS-B (KMCO)
12:37PM 28.1817 -81.7445 167° South 378 435 21,000 -540 Level FlightAware ADS-B (KMCO)
12:37PM 28.1135 -81.7265 167° South 384 442 20,300 -1,020 Descending FlightAware ADS-B (KMCO)
12:38PM 28.0070 -81.6984 167° South 391 450 19,300 -1,140 Descending FlightAware ADS-B (KMCO)
12:40PM 27.8908 -81.6678 167° South 401 461 18,000 -1,080 Descending FlightAware ADS-B (KMCO)
12:40PM 27.8128 -81.6473 167° South 398 458 17,400 -600 Descending FlightAware ADS-B (KMCO)
12:41PM 27.7756 -81.6432 180° South 390 449 17,400  Level FlightAware ADS-B (KMCO)
12:41PM 27.7029 -81.6502 184° South 384 442 17,400  Level FlightAware ADS-B (KMCO)
12:42PM 27.6309 -81.6558 184° South 380 437 17,400  Level FlightAware ADS-B (KMCO)
12:43PM 27.5248 -81.6644 184° South 377 434 17,400  Level FlightAware ADS-B (KMCO)
12:44PM 27.4540 -81.6701 184° South 376 433 17,400  Level FlightAware ADS-B (KMCO)
12:44PM 27.3837 -81.6759 184° South 376 433 17,400  Level FlightAware ADS-B (KMCO)
12:45PM 27.3143 -81.6816 184° South 376 433 17,400 -120 Level FlightAware ADS-B (KMCO)
12:46PM 27.2448 -81.6873 184° South 380 437 17,300 -840 Descending FlightAware ADS-B (KMCO)
12:46PM 27.1734 -81.6931 184° South 395 455 16,300 -1,680 Descending FlightAware ADS-B (KMCO)
12:47PM 27.1043 -81.6988 184° South 392 451 15,200 -1,740 Descending FlightAware ADS-B (KMCO)
12:48PM 26.9927 -81.7079 184° South 377 434 13,400 -1,080 Descending FlightAware ADS-B (KMCO)
12:50PM 26.8173 -81.7235 186° South 363 418 12,400 -420 Descending FlightAware ADS-B (KEYW)
12:50PM 26.7614 -81.7322 186° South 365 420 12,500 -960 Climbing Miami Center
12:51PM 26.6567 -81.7575 192° South 359 413 10,800 -2,160 Descending Miami Center
12:52PM 26.5744 -81.7747 191° South 304 350 8,100 -2,820 Descending Miami Center
12:53PM 26.4967 -81.7478 163° South 294 338 5,000 -2,460 Descending Miami Center
12:55PM 26.4194 -81.7289 168° South 267 307 3,000 -1,260 Descending Miami Center
12:56PM 26.3489 -81.7267 178° South 239 275 2,400 -540 Descending Miami Center
12:58PM 26.2275 -81.7353 184° South 192 221 1,400 -540 Descending Miami Center
12:59PM 26.1889 -81.7406 187° South 150 173 800 -600 Descending Miami Center
01:00PM 26.1633 -81.7633 219° Southwest 124 143 200 -600 Descending Miami Center